createdAt,value
2023-08-04T00:01:56.562Z,96672.44
2023-08-04T00:04:00.630Z,96681.19
2023-08-04T00:06:09.182Z,96679.28
2023-08-04T00:08:11.750Z,96678.00
2023-08-04T00:10:14.421Z,96679.41
2023-08-04T00:12:17.285Z,96682.97
2023-08-04T00:14:19.974Z,96685.94
2023-08-04T00:16:22.597Z,96685.94
2023-08-04T00:18:24.283Z,96688.69
2023-08-04T00:20:28.193Z,96693.34
2023-08-04T00:22:30.789Z,96693.47
2023-08-04T00:24:33.420Z,96693.78
2023-08-04T00:26:36.043Z,96697.09
2023-08-04T00:28:38.652Z,96697.50
2023-08-04T00:30:41.266Z,96695.97
2023-08-04T00:32:43.962Z,96695.22
2023-08-04T00:34:47.333Z,96690.06
2023-08-04T00:36:51.349Z,96696.28
2023-08-04T00:38:53.949Z,96697.47
2023-08-04T00:40:56.564Z,96692.94
2023-08-04T00:42:59.178Z,96692.19
2023-08-04T00:45:00.817Z,96696.28
2023-08-04T00:47:03.349Z,96686.69
2023-08-04T00:49:08.166Z,96688.25
2023-08-04T00:51:11.138Z,96692.47
2023-08-04T00:53:15.989Z,96691.59
2023-08-04T00:55:19.685Z,96691.88
2023-08-04T00:57:22.340Z,96692.94
2023-08-04T00:59:25.036Z,96697.13
2023-08-04T01:01:27.707Z,96694.50
2023-08-04T01:03:30.686Z,96692.72
2023-08-04T01:05:38.915Z,96693.72
2023-08-04T01:07:48.341Z,96698.25
2023-08-04T01:10:06.742Z,96684.16
2023-08-04T01:12:16.455Z,96690.88
2023-08-04T01:14:21.024Z,96690.16
2023-08-04T01:16:23.869Z,96691.84
2023-08-04T01:18:26.536Z,96692.44
2023-08-04T01:20:29.772Z,96693.63
2023-08-04T01:22:34.145Z,96685.50
2023-08-04T01:24:36.798Z,96697.94
2023-08-04T01:26:45.276Z,96691.44
2023-08-04T01:28:50.235Z,96696.09
2023-08-04T01:30:56.966Z,96696.94
2023-08-04T01:32:59.974Z,96694.63
2023-08-04T01:35:02.962Z,96688.56
2023-08-04T01:37:05.908Z,96686.06
2023-08-04T01:39:09.906Z,96685.22
2023-08-04T01:41:11.583Z,96691.88
2023-08-04T01:43:14.050Z,96690.13
2023-08-04T01:45:16.649Z,96691.81
2023-08-04T01:47:19.326Z,96697.09
2023-08-04T01:49:22.212Z,96693.81
2023-08-04T01:51:24.850Z,96687.59
2023-08-04T01:53:27.459Z,96686.25
2023-08-04T01:55:31.419Z,96683.16
2023-08-04T01:57:34.148Z,96682.34
2023-08-04T01:59:36.751Z,96682.47
2023-08-04T02:01:39.381Z,96679.19
2023-08-04T02:03:42.195Z,96680.88
2023-08-04T02:05:47.873Z,96680.47
2023-08-04T02:07:50.486Z,96679.19
2023-08-04T02:09:53.806Z,96686.13
2023-08-04T02:11:58.450Z,96684.44
2023-08-04T02:14:01.150Z,96690.75
2023-08-04T02:16:03.819Z,96691.34
2023-08-04T02:18:06.607Z,96700.19
2023-08-04T02:20:10.276Z,96693.66
2023-08-04T02:22:12.953Z,96694.59
2023-08-04T02:24:15.635Z,96696.91
2023-08-04T02:26:18.261Z,96693.78
2023-08-04T02:28:22.268Z,96687.91
2023-08-04T02:30:24.949Z,96687.91
2023-08-04T02:32:27.552Z,96693.28
2023-08-04T02:34:29.342Z,96703.69
2023-08-04T02:36:31.870Z,96702.97
2023-08-04T02:38:34.563Z,96709.50
2023-08-04T02:40:38.046Z,96701.59
2023-08-04T02:42:40.663Z,96703.69
2023-08-04T02:44:44.607Z,96699.50
2023-08-04T02:46:47.343Z,96696.34
2023-08-04T02:48:49.999Z,96693.16
2023-08-04T02:50:58.676Z,96684.47
2023-08-04T02:53:01.274Z,96680.00
2023-08-04T02:55:03.916Z,96678.59
2023-08-04T02:57:06.966Z,96680.03
2023-08-04T02:59:09.589Z,96683.09
2023-08-04T03:01:13.939Z,96683.19
2023-08-04T03:03:16.667Z,96681.94
2023-08-04T03:05:18.461Z,96670.38
2023-08-04T03:07:21.124Z,96666.44
2023-08-04T03:09:23.812Z,96666.31
2023-08-04T03:11:26.920Z,96663.38
2023-08-04T03:13:31.105Z,96671.41
2023-08-04T03:15:33.718Z,96666.25
2023-08-04T03:17:37.695Z,96666.44
2023-08-04T03:19:40.424Z,96670.03
2023-08-04T03:21:43.087Z,96665.91
2023-08-04T03:23:45.678Z,96668.31
2023-08-04T03:25:47.297Z,96668.00
2023-08-04T03:27:49.876Z,96663.66
2023-08-04T03:29:52.519Z,96661.91
2023-08-04T03:31:54.178Z,96657.56
2023-08-04T03:33:58.024Z,96650.53
2023-08-04T03:36:00.626Z,96652.84
2023-08-04T03:38:04.326Z,96650.63
2023-08-04T03:40:07.726Z,96651.91
2023-08-04T03:42:11.059Z,96655.22
2023-08-04T03:44:13.722Z,96651.97
2023-08-04T03:46:16.385Z,96658.78
2023-08-04T03:48:19.046Z,96656.50
2023-08-04T03:50:25.336Z,96648.94
2023-08-04T03:52:28.061Z,96662.16
2023-08-04T03:54:30.784Z,96667.97
2023-08-04T03:56:33.500Z,96664.06
2023-08-04T03:58:36.108Z,96667.22
2023-08-04T04:00:38.743Z,96665.53
2023-08-04T04:02:41.788Z,96667.00
2023-08-04T04:04:44.589Z,96675.53
2023-08-04T04:06:48.514Z,96670.16
2023-08-04T04:08:51.574Z,96676.50
2023-08-04T04:10:56.239Z,96677.41
2023-08-04T04:12:58.904Z,96671.53
2023-08-04T04:15:01.538Z,96673.84
2023-08-04T04:17:04.513Z,96675.59
2023-08-04T04:19:07.186Z,96655.75
2023-08-04T04:21:08.830Z,96663.53
2023-08-04T04:23:12.646Z,96664.69
2023-08-04T04:25:15.403Z,96671.19
2023-08-04T04:27:18.704Z,96670.06
2023-08-04T04:29:21.346Z,96684.56
2023-08-04T04:31:23.927Z,96686.56
2023-08-04T04:33:26.556Z,96687.94
2023-08-04T04:35:29.237Z,96685.53
2023-08-04T04:37:31.865Z,96679.53
2023-08-04T04:39:35.841Z,96684.56
2023-08-04T04:41:39.813Z,96684.13
2023-08-04T04:43:42.438Z,96689.50
2023-08-04T04:45:50.351Z,96693.59
2023-08-04T04:47:53.037Z,96702.75
2023-08-04T04:49:55.750Z,96705.81
2023-08-04T04:51:58.391Z,96705.94
2023-08-04T04:54:01.092Z,96715.59
2023-08-04T04:56:05.375Z,96715.09
2023-08-04T04:58:08.140Z,96716.22
2023-08-04T05:00:12.020Z,96715.31
2023-08-04T05:02:14.701Z,96709.94
2023-08-04T05:04:17.407Z,96709.38
2023-08-04T05:06:19.056Z,96713.50
2023-08-04T05:08:21.510Z,96719.72
2023-08-04T05:10:24.097Z,96711.81
2023-08-04T05:12:28.120Z,96704.78
2023-08-04T05:14:30.758Z,96712.13
2023-08-04T05:16:33.478Z,96708.66
2023-08-04T05:18:36.260Z,96709.28
2023-08-04T05:20:38.926Z,96715.78
2023-08-04T05:22:41.620Z,96719.03
2023-08-04T05:24:45.020Z,96707.47
2023-08-04T05:26:48.979Z,96717.25
2023-08-04T05:28:52.944Z,96718.34
2023-08-04T05:30:56.197Z,96718.84
2023-08-04T05:32:59.685Z,96715.38
2023-08-04T05:35:02.379Z,96721.47
2023-08-04T05:37:05.331Z,96709.38
2023-08-04T05:39:08.029Z,96713.78
2023-08-04T05:41:10.691Z,96720.41
2023-08-04T05:43:13.151Z,96717.03
2023-08-04T05:45:17.276Z,96716.41
2023-08-04T05:47:20.965Z,96723.56
2023-08-04T05:49:23.754Z,96715.78
2023-08-04T05:51:26.415Z,96715.44
2023-08-04T05:53:29.191Z,96710.63
2023-08-04T05:55:31.998Z,96714.81
2023-08-04T05:57:34.781Z,96707.97
2023-08-04T05:59:37.410Z,96721.97
2023-08-04T06:01:41.462Z,96717.31
2023-08-04T06:03:45.108Z,96724.28
2023-08-04T06:05:47.842Z,96712.69
2023-08-04T06:07:50.455Z,96719.03
2023-08-04T06:09:53.065Z,96720.91
2023-08-04T06:11:55.723Z,96722.53
2023-08-04T06:13:58.391Z,96721.88
2023-08-04T06:16:01.066Z,96725.25
2023-08-04T06:18:05.232Z,96726.06
2023-08-04T06:20:09.349Z,96724.19
2023-08-04T06:22:14.527Z,96729.44
2023-08-04T06:24:27.830Z,96726.41
2023-08-04T06:26:30.412Z,96729.03
2023-08-04T06:28:33.024Z,96733.63
2023-08-04T06:30:38.116Z,96732.91
2023-08-04T06:32:40.775Z,96729.31
2023-08-04T06:34:44.782Z,96735.31
2023-08-04T06:36:47.965Z,96728.78
2023-08-04T06:38:50.585Z,96734.34
2023-08-04T06:40:53.278Z,96732.25
2023-08-04T06:42:55.967Z,96728.44
2023-08-04T06:44:58.852Z,96731.81
2023-08-04T06:47:00.589Z,96733.47
2023-08-04T06:49:03.283Z,96741.88
2023-08-04T06:51:07.777Z,96742.63
2023-08-04T06:53:11.172Z,96743.13
2023-08-04T06:55:13.816Z,96747.84
2023-08-04T06:57:16.499Z,96745.13
2023-08-04T06:59:19.091Z,96750.88
2023-08-04T07:01:21.757Z,96752.84
2023-08-04T07:03:24.689Z,96753.91
2023-08-04T07:05:27.485Z,96745.53
2023-08-04T07:07:31.578Z,96748.34
2023-08-04T07:09:34.220Z,96751.72
2023-08-04T07:11:36.871Z,96754.00
2023-08-04T07:13:39.470Z,96751.84
2023-08-04T07:15:42.159Z,96757.63
2023-08-04T07:17:44.809Z,96753.19
2023-08-04T07:19:48.922Z,96757.19
2023-08-04T07:21:51.680Z,96759.94
2023-08-04T07:23:55.745Z,96761.25
2023-08-04T07:25:57.558Z,96766.31
2023-08-04T07:28:00.169Z,96762.13
2023-08-04T07:30:03.029Z,96767.06
2023-08-04T07:32:06.548Z,96758.91
2023-08-04T07:34:09.189Z,96759.88
2023-08-04T07:36:11.812Z,96764.78
2023-08-04T07:38:14.440Z,96763.72
2023-08-04T07:40:18.623Z,96757.28
2023-08-04T07:42:21.235Z,96761.69
2023-08-04T07:44:23.821Z,96766.13
2023-08-04T07:46:28.095Z,96764.34
2023-08-04T07:48:31.093Z,96765.88
2023-08-04T07:50:33.835Z,96774.28
2023-08-04T07:52:36.546Z,96779.34
2023-08-04T07:54:39.166Z,96775.28
2023-08-04T07:56:43.165Z,96773.03
2023-08-04T07:58:45.955Z,96770.03
2023-08-04T08:00:48.656Z,96769.59
2023-08-04T08:02:51.349Z,96765.00
2023-08-04T08:04:54.565Z,96758.78
2023-08-04T08:06:57.268Z,96753.38
2023-08-04T08:08:59.892Z,96748.56
2023-08-04T08:11:04.783Z,96750.16
2023-08-04T08:13:08.810Z,96750.28
2023-08-04T08:15:12.641Z,96746.78
2023-08-04T08:17:15.649Z,96750.97
2023-08-04T08:19:18.302Z,96745.47
2023-08-04T08:21:20.988Z,96745.94
2023-08-04T08:23:23.607Z,96744.59
2023-08-04T08:25:26.505Z,96744.59
2023-08-04T08:27:29.104Z,96748.22
2023-08-04T08:29:33.071Z,96734.75
2023-08-04T08:31:35.980Z,96739.44
2023-08-04T08:33:38.727Z,96738.84
2023-08-04T08:35:41.425Z,96740.50
2023-08-04T08:37:44.035Z,96747.94
2023-08-04T08:39:46.655Z,96751.50
2023-08-04T08:41:49.559Z,96750.56
2023-08-04T08:43:52.442Z,96750.53
2023-08-04T08:45:57.226Z,96747.47
2023-08-04T08:48:00.652Z,96748.31
2023-08-04T08:50:04.945Z,96751.75
2023-08-04T08:52:09.644Z,96745.41
2023-08-04T08:54:12.435Z,96747.66
2023-08-04T08:56:15.732Z,96750.59
2023-08-04T08:58:18.552Z,96736.66
2023-08-04T09:00:22.058Z,96743.91
2023-08-04T09:02:26.474Z,96737.53
2023-08-04T09:04:29.926Z,96745.41
2023-08-04T09:06:32.794Z,96738.09
2023-08-04T09:08:35.433Z,96749.47
2023-08-04T09:10:39.291Z,96752.81
2023-08-04T09:12:42.018Z,96750.31
2023-08-04T09:14:52.375Z,96753.13
2023-08-04T09:16:54.992Z,96750.38
2023-08-04T09:19:04.995Z,96750.69
2023-08-04T09:21:12.901Z,96750.97
2023-08-04T09:23:14.579Z,96749.28
2023-08-04T09:25:17.193Z,96742.31
2023-08-04T09:27:27.625Z,96744.44
2023-08-04T09:29:30.254Z,96740.72
2023-08-04T09:31:37.156Z,96745.47
2023-08-04T09:33:43.124Z,96735.59
2023-08-04T09:35:47.923Z,96740.09
2023-08-04T09:37:56.493Z,96739.97
2023-08-04T09:39:58.455Z,96734.53
2023-08-04T09:42:01.749Z,96730.59
2023-08-04T09:44:07.039Z,96737.97
2023-08-04T09:46:12.358Z,96727.50
2023-08-04T09:48:15.516Z,96723.19
2023-08-04T09:50:18.456Z,96726.34
2023-08-04T09:52:24.684Z,96725.06
2023-08-04T09:54:27.361Z,96725.47
2023-08-04T09:56:31.134Z,96721.50
2023-08-04T09:58:34.954Z,96727.50
2023-08-04T10:00:38.239Z,96729.59
2023-08-04T10:02:41.335Z,96728.50
2023-08-04T10:04:44.833Z,96729.72
2023-08-04T10:06:47.835Z,96726.28
2023-08-04T10:08:55.543Z,96724.22
2023-08-04T10:10:58.874Z,96722.59
2023-08-04T10:13:01.760Z,96718.56
2023-08-04T10:15:06.364Z,96712.88
2023-08-04T10:17:08.483Z,96718.16
2023-08-04T10:19:14.105Z,96718.72
2023-08-04T10:21:17.692Z,96727.81
2023-08-04T10:23:20.757Z,96723.50
2023-08-04T10:25:25.307Z,96727.00
2023-08-04T10:27:29.027Z,96723.78
2023-08-04T10:29:34.554Z,96731.03
2023-08-04T10:31:53.116Z,96725.22
2023-08-04T10:34:18.982Z,96721.19
2023-08-04T10:36:21.642Z,96730.25
2023-08-04T10:38:25.772Z,96734.75
2023-08-04T10:40:31.247Z,96738.53
2023-08-04T10:42:34.012Z,96735.88
2023-08-04T10:44:53.117Z,96740.88
2023-08-04T10:47:01.666Z,96743.69
2023-08-04T10:49:04.437Z,96750.41
2023-08-04T10:51:07.148Z,96748.56
2023-08-04T10:53:10.009Z,96755.00
2023-08-04T10:55:15.228Z,96752.88
2023-08-04T10:57:22.430Z,96745.56
2023-08-04T10:59:25.027Z,96733.28
2023-08-04T11:01:29.004Z,96734.16
2023-08-04T11:03:34.429Z,96742.25
2023-08-04T11:05:37.196Z,96740.41
2023-08-04T11:07:46.106Z,96736.94
2023-08-04T11:09:50.033Z,96742.25
2023-08-04T11:11:52.723Z,96738.88
2023-08-04T11:13:59.448Z,96738.03
2023-08-04T11:16:04.027Z,96737.13
2023-08-04T11:18:11.876Z,96743.13
2023-08-04T11:22:22.886Z,96754.72
2023-08-04T11:24:25.623Z,96745.97
2023-08-04T11:26:29.577Z,96757.09
2023-08-04T11:28:33.734Z,96740.63
2023-08-04T11:30:38.543Z,96752.19
2023-08-04T11:32:41.379Z,96757.09
2023-08-04T11:34:44.063Z,96756.81
2023-08-04T11:36:47.541Z,96762.41
2023-08-04T11:38:50.250Z,96762.56
2023-08-04T11:40:58.303Z,96776.22
2023-08-04T11:43:02.086Z,96783.91
2023-08-04T11:45:09.792Z,96782.09
2023-08-04T11:47:15.521Z,96793.97
2023-08-04T11:49:18.230Z,96799.25
2023-08-04T11:51:21.131Z,96804.81
2023-08-04T11:53:24.540Z,96794.22
2023-08-04T11:55:27.298Z,96783.88
2023-08-04T11:57:30.051Z,96784.16
2023-08-04T11:59:32.707Z,96768.41
2023-08-04T12:01:36.126Z,96761.28
2023-08-04T12:03:48.230Z,96753.75
2023-08-04T12:05:52.230Z,96750.13
2023-08-04T12:07:56.902Z,96752.06
2023-08-04T12:09:59.663Z,96756.00
2023-08-04T12:12:03.444Z,96754.59
2023-08-04T12:14:10.218Z,96751.22
2023-08-04T12:16:13.605Z,96761.31
2023-08-04T12:18:24.193Z,96764.66
2023-08-04T12:20:28.411Z,96770.78
2023-08-04T12:22:31.079Z,96786.16
2023-08-04T12:24:34.188Z,96780.59
2023-08-04T12:26:36.770Z,96782.09
2023-08-04T12:28:39.480Z,96783.78
2023-08-04T12:30:42.113Z,96777.94
2023-08-04T12:32:44.823Z,96784.75
2023-08-04T12:34:47.438Z,96783.66
2023-08-04T12:36:51.413Z,96785.16
2023-08-04T12:38:54.032Z,96782.63
2023-08-04T12:40:56.844Z,96781.38
2023-08-04T12:42:59.620Z,96787.34
2023-08-04T12:45:02.843Z,96784.06
2023-08-04T12:47:05.035Z,96790.63
2023-08-04T12:49:07.758Z,96793.69
2023-08-04T12:51:10.516Z,96780.16
2023-08-04T12:53:16.912Z,96786.28
2023-08-04T12:55:19.627Z,96778.63
2023-08-04T12:57:22.258Z,96768.44
2023-08-04T12:59:24.860Z,96757.69
2023-08-04T13:01:27.542Z,96757.53
2023-08-04T13:03:30.194Z,96761.97
2023-08-04T13:05:32.843Z,96765.81
2023-08-04T13:07:35.473Z,96775.47
2023-08-04T13:09:39.441Z,96782.41
2023-08-04T13:11:42.196Z,96782.75
2023-08-04T13:13:44.849Z,96780.91
2023-08-04T13:15:48.379Z,96785.13
2023-08-04T13:17:50.992Z,96784.97
2023-08-04T13:19:53.655Z,96787.25
2023-08-04T13:21:56.290Z,96789.03
2023-08-04T13:23:58.870Z,96794.00
2023-08-04T13:26:06.247Z,96796.03
2023-08-04T13:28:09.314Z,96799.50
2023-08-04T13:30:12.259Z,96795.97
2023-08-04T13:32:15.011Z,96789.53
2023-08-04T13:34:17.743Z,96784.47
2023-08-04T13:36:20.448Z,96793.59
2023-08-04T13:38:23.056Z,96787.34
2023-08-04T13:40:25.796Z,96778.88
2023-08-04T13:42:29.868Z,96780.03
2023-08-04T13:44:32.619Z,96784.94
2023-08-04T13:46:35.234Z,96783.97
2023-08-04T13:48:38.027Z,96798.44
2023-08-04T13:50:40.760Z,96788.78
2023-08-04T13:52:43.463Z,96790.91
2023-08-04T13:54:46.151Z,96793.28
2023-08-04T13:56:49.486Z,96804.56
2023-08-04T13:58:54.003Z,96814.19
2023-08-04T14:01:01.143Z,96832.63
2023-08-04T14:03:03.872Z,96842.38
2023-08-04T14:05:07.666Z,96856.50
2023-08-04T14:07:10.493Z,96853.59
2023-08-04T14:09:13.485Z,96865.97
2023-08-04T14:11:16.198Z,96883.91
2023-08-04T14:13:18.860Z,96898.09
2023-08-04T14:15:23.259Z,96896.03
2023-08-04T14:17:26.067Z,96902.41
2023-08-04T14:19:28.023Z,96908.59
2023-08-04T14:21:30.634Z,96907.97
2023-08-04T14:23:32.293Z,96909.72
2023-08-04T14:25:34.972Z,96908.69
2023-08-04T14:27:37.570Z,96909.69
2023-08-04T14:29:40.191Z,96906.28
2023-08-04T14:31:44.251Z,96899.53
2023-08-04T14:33:47.011Z,96890.53
2023-08-04T14:35:48.765Z,96890.84
2023-08-04T14:37:51.353Z,96895.91
2023-08-04T14:39:54.001Z,96886.91
2023-08-04T14:41:56.656Z,96885.44
2023-08-04T14:43:58.373Z,96884.28
2023-08-04T14:46:01.369Z,96880.69
2023-08-04T14:48:05.748Z,96884.31
2023-08-04T14:50:10.154Z,96876.13
2023-08-04T14:52:12.935Z,96879.03
2023-08-04T14:54:15.727Z,96870.03
2023-08-04T14:56:18.563Z,96867.03
2023-08-04T14:58:21.364Z,96863.78
2023-08-04T15:00:23.959Z,96865.72
2023-08-04T15:02:26.619Z,96868.22
2023-08-04T15:04:30.724Z,96865.94
2023-08-04T15:06:33.480Z,96865.72
2023-08-04T15:08:36.057Z,96873.41
2023-08-04T15:10:38.770Z,96875.44
2023-08-04T15:12:41.403Z,96885.28
2023-08-04T15:14:44.872Z,96878.44
2023-08-04T15:16:47.745Z,96883.81
2023-08-04T15:18:50.710Z,96879.03
2023-08-04T15:20:54.717Z,96879.38
2023-08-04T15:22:57.372Z,96868.22
2023-08-04T15:24:59.977Z,96873.38
2023-08-04T15:27:02.580Z,96870.75
2023-08-04T15:29:05.277Z,96873.97
2023-08-04T15:31:09.433Z,96878.66
2023-08-04T15:33:12.164Z,96884.63
2023-08-04T15:35:14.895Z,96883.94
2023-08-04T15:37:18.892Z,96890.44
2023-08-04T15:39:21.669Z,96895.25
2023-08-04T15:41:24.354Z,96890.94
2023-08-04T15:43:26.976Z,96887.78
2023-08-04T15:45:29.693Z,96892.72
2023-08-04T15:47:32.422Z,96894.03
2023-08-04T15:49:35.090Z,96891.78
2023-08-04T15:51:37.694Z,96884.28
2023-08-04T15:53:41.792Z,96883.53
2023-08-04T15:55:43.674Z,96881.34
2023-08-04T15:57:46.322Z,96879.28
2023-08-04T15:59:49.103Z,96878.50
2023-08-04T16:01:51.795Z,96881.69
2023-08-04T16:03:55.573Z,96873.28
2023-08-04T16:06:00.131Z,96874.38
2023-08-04T16:08:02.730Z,96874.88
2023-08-04T16:10:08.036Z,96879.00
2023-08-04T16:12:10.994Z,96880.00
2023-08-04T16:14:13.603Z,96886.41
2023-08-04T16:16:16.261Z,96891.97
2023-08-04T16:18:18.890Z,96885.53
2023-08-04T16:20:21.587Z,96886.00
2023-08-04T16:22:24.345Z,96891.25
2023-08-04T16:24:26.966Z,96892.97
2023-08-04T16:26:32.371Z,96901.00
2023-08-04T16:28:36.731Z,96895.47
2023-08-04T16:30:39.374Z,96894.19
2023-08-04T16:32:42.030Z,96909.38
2023-08-04T16:34:44.695Z,96915.72
2023-08-04T16:36:47.531Z,96915.00
2023-08-04T16:38:50.490Z,96917.56
2023-08-04T16:40:56.370Z,96915.50
2023-08-04T16:43:00.386Z,96911.84
2023-08-04T16:45:03.547Z,96914.34
2023-08-04T16:47:06.500Z,96905.59
2023-08-04T16:49:09.131Z,96896.25
2023-08-04T16:51:11.708Z,96896.97
2023-08-04T16:53:14.362Z,96903.84
2023-08-04T16:55:17.246Z,96902.50
2023-08-04T16:57:19.913Z,96903.22
2023-08-04T16:59:24.339Z,96909.78
2023-08-04T17:01:27.037Z,96912.94
2023-08-04T17:03:30.172Z,96916.25
2023-08-04T17:05:33.418Z,96906.63
2023-08-04T17:07:35.993Z,96919.69
2023-08-04T17:09:38.599Z,96916.97
2023-08-04T17:11:41.208Z,96920.44
2023-08-04T17:13:44.580Z,96921.75
2023-08-04T17:15:48.702Z,96925.22
2023-08-04T17:17:53.066Z,96924.06
2023-08-04T17:19:57.721Z,96924.56
2023-08-04T17:22:00.404Z,96922.31
2023-08-04T17:24:03.564Z,96928.69
2023-08-04T17:26:21.921Z,96932.09
2023-08-04T17:28:24.697Z,96929.13
2023-08-04T17:30:27.390Z,96933.00
2023-08-04T17:32:33.535Z,96933.13
2023-08-04T17:34:36.243Z,96945.88
2023-08-04T17:36:39.121Z,96937.50
2023-08-04T17:38:41.776Z,96930.53
2023-08-04T17:40:44.376Z,96943.84
2023-08-04T17:42:47.000Z,96938.66
2023-08-04T17:44:49.603Z,96937.47
2023-08-04T17:46:52.324Z,96936.16
2023-08-04T17:48:56.479Z,96949.38
2023-08-04T17:50:59.918Z,96952.75
2023-08-04T17:53:02.533Z,96952.50
2023-08-04T17:55:05.896Z,96955.34
2023-08-04T17:57:08.633Z,96959.09
2023-08-04T17:59:11.306Z,96957.53
2023-08-04T18:01:13.943Z,96965.13
2023-08-04T18:03:15.662Z,96963.22
2023-08-04T18:05:19.744Z,96972.13
2023-08-04T18:07:22.365Z,96975.00
2023-08-04T18:09:25.003Z,96977.06
2023-08-04T18:11:27.624Z,96975.66
2023-08-04T18:13:30.321Z,96973.22
2023-08-04T18:15:32.986Z,96980.59
2023-08-04T18:17:35.611Z,96988.88
2023-08-04T18:19:38.318Z,96999.47
2023-08-04T18:21:42.272Z,96998.66
2023-08-04T18:23:44.876Z,96995.53
2023-08-04T18:25:47.544Z,97002.53
2023-08-04T18:27:49.228Z,97002.75
2023-08-04T18:29:52.975Z,97006.38
2023-08-04T18:31:55.567Z,97009.25
2023-08-04T18:33:58.175Z,97017.66
2023-08-04T18:36:00.967Z,97017.94
2023-08-04T18:38:04.888Z,97029.09
2023-08-04T18:40:08.743Z,97025.25
2023-08-04T18:42:11.304Z,97025.63
2023-08-04T18:44:13.904Z,97024.66
2023-08-04T18:46:16.582Z,97022.38
2023-08-04T18:48:19.280Z,97031.38
2023-08-04T18:50:24.570Z,97030.78
2023-08-04T18:52:27.341Z,97029.94
2023-08-04T18:54:32.355Z,97033.28
2023-08-04T18:56:35.066Z,97029.69
2023-08-04T18:58:37.663Z,97035.50
2023-08-04T19:00:40.300Z,97047.66
2023-08-04T19:02:43.034Z,97045.34
2023-08-04T19:04:44.934Z,97045.59
2023-08-04T19:06:47.900Z,97054.09
2023-08-04T19:08:50.695Z,97050.16
2023-08-04T19:10:54.624Z,97054.34
2023-08-04T19:12:57.225Z,97058.50
2023-08-04T19:14:59.947Z,97063.19
2023-08-04T19:17:04.406Z,97062.91
2023-08-04T19:19:07.038Z,97060.91
2023-08-04T19:21:09.663Z,97064.34
2023-08-04T19:23:12.240Z,97074.41
2023-08-04T19:25:14.960Z,97065.44
2023-08-04T19:27:20.502Z,97070.09
2023-08-04T19:29:23.245Z,97075.16
2023-08-04T19:31:25.996Z,97083.06
2023-08-04T19:33:28.676Z,97091.84
2023-08-04T19:35:31.303Z,97089.22
2023-08-04T19:37:33.947Z,97082.13
2023-08-04T19:39:36.977Z,97091.00
2023-08-04T19:41:39.638Z,97095.34
2023-08-04T19:43:43.630Z,97090.84
2023-08-04T19:45:46.339Z,97093.00
2023-08-04T19:47:49.012Z,97096.81
2023-08-04T19:49:51.682Z,97094.50
2023-08-04T19:51:54.394Z,97095.06
2023-08-04T19:53:57.104Z,97088.41
2023-08-04T19:56:08.434Z,97093.59
2023-08-04T19:58:12.342Z,97100.16
2023-08-04T20:00:16.663Z,97098.06
2023-08-04T20:02:19.355Z,97094.94
2023-08-04T20:04:22.051Z,97093.97
2023-08-04T20:06:24.722Z,97081.38
2023-08-04T20:08:27.516Z,97077.69
2023-08-04T20:10:30.657Z,97079.50
2023-08-04T20:12:33.337Z,97090.81
2023-08-04T20:14:35.918Z,97095.88
2023-08-04T20:16:39.954Z,97096.72
2023-08-04T20:18:43.236Z,97101.06
2023-08-04T20:20:52.856Z,97096.81
2023-08-04T20:22:55.651Z,97089.75
2023-08-04T20:24:58.273Z,97089.13
2023-08-04T20:27:01.006Z,97089.13
2023-08-04T20:29:03.630Z,97095.06
2023-08-04T20:31:07.538Z,97092.41
2023-08-04T20:33:14.662Z,97098.44
2023-08-04T20:35:17.412Z,97093.84
2023-08-04T20:37:19.994Z,97091.72
2023-08-04T20:39:22.691Z,97099.44
2023-08-04T20:41:25.305Z,97103.84
2023-08-04T20:43:26.953Z,97119.25
2023-08-04T20:45:29.443Z,97122.72
2023-08-04T20:47:32.152Z,97125.88
2023-08-04T20:49:36.159Z,97132.84
2023-08-04T20:51:38.778Z,97141.50
2023-08-04T20:53:41.626Z,97145.81
2023-08-04T20:55:45.177Z,97147.59
2023-08-04T20:57:47.795Z,97152.03
2023-08-04T20:59:50.531Z,97154.34
2023-08-04T21:01:53.447Z,97159.59
2023-08-04T21:03:56.914Z,97155.63
2023-08-04T21:06:00.972Z,97162.88
2023-08-04T21:08:02.787Z,97163.59
2023-08-04T21:10:06.213Z,97164.66
2023-08-04T21:12:09.703Z,97166.25
2023-08-04T21:14:12.426Z,97168.69
2023-08-04T21:16:15.062Z,97166.69
2023-08-04T21:18:18.108Z,97176.81
2023-08-04T21:20:21.109Z,97174.91
2023-08-04T21:22:25.060Z,97174.47
2023-08-04T21:24:29.096Z,97173.03
2023-08-04T21:26:31.826Z,97171.34
2023-08-04T21:28:34.518Z,97174.50
2023-08-04T21:30:36.266Z,97174.19
2023-08-04T21:32:39.002Z,97181.88
2023-08-04T21:34:41.662Z,97176.91
2023-08-04T21:36:44.251Z,97182.63
2023-08-04T21:38:48.214Z,97182.19
2023-08-04T21:40:50.813Z,97175.34
2023-08-04T21:42:53.400Z,97177.56
2023-08-04T21:44:56.682Z,97175.78
2023-08-04T21:46:59.346Z,97175.13
2023-08-04T21:49:03.821Z,97172.06
2023-08-04T21:51:13.221Z,97176.59
2023-08-04T21:53:15.907Z,97172.47
2023-08-04T21:55:20.058Z,97167.19
2023-08-04T21:57:21.693Z,97162.88
2023-08-04T21:59:24.226Z,97155.81
2023-08-04T22:01:26.865Z,97153.69
2023-08-04T22:03:29.691Z,97160.66
2023-08-04T22:05:34.781Z,97151.59
2023-08-04T22:07:37.426Z,97156.34
2023-08-04T22:09:40.034Z,97157.38
2023-08-04T22:11:43.982Z,97160.88
2023-08-04T22:13:46.696Z,97166.97
2023-08-04T22:15:52.018Z,97159.47
2023-08-04T22:17:54.754Z,97155.59
2023-08-04T22:19:57.499Z,97145.28
2023-08-04T22:22:00.103Z,97144.41
2023-08-04T22:24:01.861Z,97150.72
2023-08-04T22:26:07.041Z,97150.00
2023-08-04T22:28:11.503Z,97151.78
2023-08-04T22:30:14.202Z,97150.53
2023-08-04T22:32:16.853Z,97146.31
2023-08-04T22:34:19.508Z,97146.09
2023-08-04T22:36:22.059Z,97152.31
2023-08-04T22:38:24.657Z,97141.88
2023-08-04T22:40:27.268Z,97132.00
2023-08-04T22:42:29.824Z,97130.19
2023-08-04T22:44:33.787Z,97137.25
2023-08-04T22:46:36.471Z,97132.72
2023-08-04T22:48:39.095Z,97138.19
2023-08-04T22:50:42.352Z,97131.25
2023-08-04T22:52:45.836Z,97133.88
2023-08-04T22:54:48.457Z,97136.50
2023-08-04T22:56:51.190Z,97138.81
2023-08-04T22:58:54.068Z,97140.94
2023-08-04T23:00:58.152Z,97136.50
2023-08-04T23:03:00.893Z,97136.50
2023-08-04T23:05:02.617Z,97134.09
2023-08-04T23:07:05.720Z,97129.00
2023-08-04T23:09:08.307Z,97126.69
2023-08-04T23:11:11.027Z,97123.50
2023-08-04T23:13:13.621Z,97128.88
2023-08-04T23:15:16.233Z,97128.31
2023-08-04T23:17:20.179Z,97124.84
2023-08-04T23:19:22.793Z,97120.72
2023-08-04T23:21:25.462Z,97125.81
2023-08-04T23:23:28.164Z,97122.22
2023-08-04T23:25:30.760Z,97116.84
2023-08-04T23:27:33.336Z,97124.94
2023-08-04T23:29:35.923Z,97124.09
2023-08-04T23:31:39.682Z,97125.81
2023-08-04T23:33:43.637Z,97131.06
2023-08-04T23:35:53.574Z,97130.22
2023-08-04T23:37:56.199Z,97127.91
2023-08-04T23:39:59.721Z,97130.72
2023-08-04T23:42:02.325Z,97129.13
2023-08-04T23:44:05.319Z,97122.16
2023-08-04T23:46:08.077Z,97125.66
2023-08-04T23:48:10.716Z,97117.66
2023-08-04T23:50:14.736Z,97124.63
2023-08-04T23:52:17.356Z,97122.28
2023-08-04T23:54:19.967Z,97118.59
2023-08-04T23:56:22.666Z,97121.44
2023-08-04T23:58:24.353Z,97123.97
